Time;durP1;ratioP1;P1;durP2;ratioP2;P2;SDS_P1;SDS_P2;PMS_P1;PMS_P2;Temp;Humidity;BMP_temperature;BMP_pressure;BME280_temperature;BME280_humidity;BME280_pressure;Samples;Min_cycle;Max_cycle;Signal;HPM_P1;HPM_P2
2024/01/17 00:00:23;;;;;;;93.17;42.20;;;-7.50;79.30;;;;;;5108270;28;20196;-61
2024/01/17 00:02:51;;;;;;;104.90;42.67;;;-7.40;79.50;;;;;;5108091;28;20239;-62
2024/01/17 00:05:22;;;;;;;86.20;37.57;;;-7.40;78.30;;;;;;5108394;28;20200;-62
2024/01/17 00:07:50;;;;;;;86.87;39.90;;;-7.30;77.30;;;;;;5107741;28;20199;-62
2024/01/17 00:10:19;;;;;;;84.67;40.73;;;-7.30;78.00;;;;;;5088696;28;20559;-62
2024/01/17 00:12:48;;;;;;;89.70;38.37;;;-7.50;79.80;;;;;;5107318;28;20206;-63
2024/01/17 00:15:18;;;;;;;96.00;44.20;;;-7.60;84.10;;;;;;5107738;28;20223;-61
2024/01/17 00:17:47;;;;;;;91.73;41.03;;;-7.60;82.00;;;;;;5107767;28;20180;-63
2024/01/17 00:20:16;;;;;;;53.90;28.10;;;-7.40;87.20;;;;;;5107912;28;20253;-63
2024/01/17 00:22:45;;;;;;;60.43;28.43;;;-7.40;91.40;;;;;;5107957;28;20199;-62
2024/01/17 00:25:14;;;;;;;35.67;18.30;;;-6.90;99.00;;;;;;5120384;28;20750;-63
2024/01/17 00:27:42;;;;;;;27.37;13.17;;;-6.70;99.90;;;;;;5127035;28;20196;-63
2024/01/17 00:30:12;;;;;;;23.60;11.50;;;-6.30;99.90;;;;;;5127998;28;21003;-63
2024/01/17 00:32:41;;;;;;;34.97;15.47;;;-6.00;99.90;;;;;;5128152;28;20206;-62
2024/01/17 00:35:10;;;;;;;36.47;18.43;;;-5.80;99.90;;;;;;5127779;28;21005;-62
2024/01/17 00:37:38;;;;;;;27.27;14.23;;;-5.70;98.80;;;;;;5127750;28;20203;-62
2024/01/17 00:40:07;;;;;;;33.97;17.93;;;-5.60;99.10;;;;;;5128244;27;20206;-63
2024/01/17 00:42:35;;;;;;;26.13;13.70;;;-5.40;98.20;;;;;;5131429;27;20194;-62
2024/01/17 00:45:04;;;;;;;19.80;9.70;;;-5.40;99.40;;;;;;5131327;27;20187;-62
2024/01/17 00:47:34;;;;;;;21.97;10.30;;;-5.30;99.90;;;;;;5131180;27;20196;-62
2024/01/17 00:50:03;;;;;;;17.43;9.33;;;-5.20;99.90;;;;;;5131752;27;20203;-63
2024/01/17 00:52:31;;;;;;;17.90;10.10;;;-5.10;99.90;;;;;;5131386;27;20189;-62
2024/01/17 00:55:00;;;;;;;17.90;9.60;;;-5.10;99.90;;;;;;5112751;27;20834;-61
2024/01/17 00:57:28;;;;;;;15.97;9.63;;;-4.90;99.50;;;;;;5110682;28;20207;-61
2024/01/17 00:59:56;;;;;;;12.73;8.70;;;-4.90;99.90;;;;;;5110662;28;20203;-61
2024/01/17 01:02:25;;;;;;;14.00;8.37;;;-4.80;99.90;;;;;;5110509;28;20249;-61
2024/01/17 01:04:54;;;;;;;13.23;9.17;;;-4.70;99.90;;;;;;5092245;28;20253;-61
2024/01/17 01:07:23;;;;;;;15.37;8.93;;;-4.70;99.90;;;;;;5111188;28;20185;-61
2024/01/17 01:09:51;;;;;;;18.60;8.67;;;-4.60;99.90;;;;;;5110843;28;20690;-62
2024/01/17 01:12:22;;;;;;;10.37;7.27;;;-4.60;99.90;;;;;;5110896;28;20279;-63
2024/01/17 01:14:51;;;;;;;9.73;8.33;;;-4.50;99.90;;;;;;5110538;28;20251;-62
2024/01/17 01:17:19;;;;;;;13.27;9.43;;;-4.40;99.90;;;;;;5111383;28;20207;-62
2024/01/17 01:19:47;;;;;;;14.20;8.97;;;-4.50;99.90;;;;;;5111487;28;20201;-63
2024/01/17 01:22:17;;;;;;;18.03;11.07;;;-4.30;99.90;;;;;;5112239;28;20201;-64
2024/01/17 01:24:45;;;;;;;16.37;9.20;;;-4.30;99.90;;;;;;5111484;28;20202;-62
2024/01/17 01:27:14;;;;;;;18.67;12.07;;;-4.30;99.90;;;;;;5112053;28;20207;-62
2024/01/17 01:29:42;;;;;;;16.50;9.63;;;-4.40;99.90;;;;;;5111795;28;20199;-61
2024/01/17 01:32:11;;;;;;;18.67;10.37;;;-4.40;99.90;;;;;;5093614;28;20204;-62
2024/01/17 01:34:39;;;;;;;18.60;10.80;;;-4.30;99.90;;;;;;5111826;28;20193;-62
2024/01/17 01:37:07;;;;;;;17.97;10.30;;;-4.30;99.90;;;;;;5112034;28;20205;-62
2024/01/17 01:39:37;;;;;;;20.57;11.53;;;-4.10;99.90;;;;;;5111738;28;20201;-62
2024/01/17 01:42:05;;;;;;;16.27;11.03;;;-4.10;99.90;;;;;;5111659;28;20221;-62
2024/01/17 01:44:34;;;;;;;18.63;11.07;;;-4.00;99.90;;;;;;5111575;28;20195;-62
2024/01/17 01:47:03;;;;;;;20.00;10.90;;;-4.00;99.90;;;;;;5111557;28;20193;-61
2024/01/17 01:49:31;;;;;;;17.17;10.93;;;-4.00;99.90;;;;;;5111606;28;20226;-61
2024/01/17 01:52:00;;;;;;;19.37;10.77;;;-4.00;99.90;;;;;;5111495;28;20294;-61
2024/01/17 01:54:29;;;;;;;22.17;11.70;;;-3.90;99.90;;;;;;5111260;28;20212;-62
2024/01/17 01:57:00;;;;;;;20.07;12.10;;;-3.90;99.90;;;;;;5111001;28;20648;-61
2024/01/17 01:59:29;;;;;;;23.43;13.03;;;-3.90;99.90;;;;;;5111314;28;20192;-62
2024/01/17 02:01:58;;;;;;;20.30;10.90;;;-4.00;99.90;;;;;;5110782;28;20566;-62
2024/01/17 02:04:28;;;;;;;19.80;13.03;;;-3.90;99.90;;;;;;5110916;28;20217;-62
2024/01/17 02:06:59;;;;;;;24.73;12.80;;;-3.80;99.90;;;;;;5110939;28;20213;-63
2024/01/17 02:09:29;;;;;;;22.20;12.83;;;-3.90;99.90;;;;;;5110922;28;20192;-63
2024/01/17 02:11:58;;;;;;;22.67;12.97;;;-4.00;99.90;;;;;;5110604;28;20494;-63
2024/01/17 02:14:28;;;;;;;22.20;13.23;;;-3.90;99.90;;;;;;5110574;28;20201;-63
2024/01/17 02:16:56;;;;;;;25.27;13.23;;;-3.80;99.90;;;;;;5111098;28;20227;-62
2024/01/17 02:19:26;;;;;;;27.27;14.33;;;-3.80;99.90;;;;;;5111125;28;20202;-63
2024/01/17 02:21:54;;;;;;;25.77;14.37;;;-4.00;99.90;;;;;;5111181;28;20198;-62
2024/01/17 02:24:24;;;;;;;28.67;15.53;;;-4.00;99.90;;;;;;5110704;28;20207;-62
2024/01/17 02:26:52;;;;;;;25.47;16.60;;;-4.10;99.90;;;;;;5110869;28;20203;-63
2024/01/17 02:29:21;;;;;;;24.03;13.83;;;-4.10;99.90;;;;;;5110787;28;20717;-62
2024/01/17 02:31:50;;;;;;;30.43;17.07;;;-4.00;99.90;;;;;;5110986;28;20247;-62
2024/01/17 02:34:19;;;;;;;26.77;15.00;;;-4.00;99.90;;;;;;5110802;28;20660;-63
2024/01/17 02:36:48;;;;;;;25.30;15.60;;;-4.10;99.90;;;;;;5110752;28;20693;-63
2024/01/17 02:39:16;;;;;;;31.90;16.33;;;-4.10;99.90;;;;;;5110615;28;20200;-63
2024/01/17 02:41:46;;;;;;;25.70;15.63;;;-4.10;99.90;;;;;;5110644;28;20195;-64
2024/01/17 02:44:14;;;;;;;26.97;15.27;;;-4.10;99.90;;;;;;5110725;28;20228;-64
2024/01/17 02:46:43;;;;;;;27.80;15.37;;;-4.10;99.90;;;;;;5110810;28;20261;-63
2024/01/17 02:49:14;;;;;;;28.73;16.10;;;-4.10;99.90;;;;;;5110568;28;20260;-63
2024/01/17 02:51:42;;;;;;;32.80;16.57;;;-4.20;99.90;;;;;;5110188;28;21017;-62
2024/01/17 02:54:11;;;;;;;33.33;16.47;;;-4.20;99.90;;;;;;5110189;28;20193;-63
2024/01/17 02:56:39;;;;;;;37.80;16.70;;;-4.10;99.90;;;;;;5109741;28;20323;-63
2024/01/17 02:59:09;;;;;;;33.07;18.57;;;-4.10;99.90;;;;;;5110340;28;20202;-62
2024/01/17 03:01:37;;;;;;;30.07;16.93;;;-4.00;99.90;;;;;;5110187;28;20195;-63
2024/01/17 03:04:06;;;;;;;34.50;17.07;;;-4.00;99.90;;;;;;5109597;28;20234;-63
2024/01/17 03:06:34;;;;;;;32.67;17.97;;;-3.90;99.90;;;;;;5110008;28;20195;-63
2024/01/17 03:09:02;;;;;;;33.83;19.37;;;-4.00;99.90;;;;;;5109858;28;20201;-63
2024/01/17 03:11:31;;;;;;;38.80;18.43;;;-4.00;99.90;;;;;;5109649;28;20195;-63
2024/01/17 03:14:00;;;;;;;36.53;20.30;;;-4.10;99.90;;;;;;5109712;28;20197;-64
2024/01/17 03:16:30;;;;;;;35.40;18.20;;;-4.00;99.90;;;;;;5109783;28;20220;-63
2024/01/17 03:18:58;;;;;;;38.00;19.23;;;-4.00;99.90;;;;;;5109631;28;20229;-63
2024/01/17 03:21:27;;;;;;;33.17;17.73;;;-3.90;99.90;;;;;;5109782;28;20235;-64
2024/01/17 03:23:55;;;;;;;36.03;18.53;;;-3.80;99.90;;;;;;5105567;28;20211;-63
2024/01/17 03:26:24;;;;;;;38.60;20.40;;;-3.60;99.90;;;;;;5105277;28;20192;-64
2024/01/17 08:25:22;;;;;;;30.70;15.17;;;-0.40;99.90;;;;;;5104589;27;20611;-71
2024/01/17 08:27:50;;;;;;;36.53;18.10;;;0.00;99.90;;;;;;5097241;28;20910;-68
2024/01/17 08:30:18;;;;;;;30.70;18.70;;;-0.50;99.90;;;;;;5084555;28;20674;-73
2024/01/17 08:32:47;;;;;;;31.13;17.67;;;-0.50;99.90;;;;;;5086148;28;20303;-72
2024/01/17 08:35:15;;;;;;;33.53;15.70;;;-0.30;99.90;;;;;;5085789;28;20212;-71
2024/01/17 08:37:44;;;;;;;31.63;17.50;;;-0.40;99.90;;;;;;5086088;28;20220;-71
2024/01/17 08:40:13;;;;;;;33.23;18.70;;;-0.40;99.90;;;;;;5085500;28;20669;-70
2024/01/17 08:42:44;;;;;;;32.57;17.50;;;-0.40;99.90;;;;;;5067441;28;20203;-73
2024/01/17 08:45:14;;;;;;;34.87;19.80;;;-0.40;99.90;;;;;;5085528;28;20281;-73
2024/01/17 08:47:43;;;;;;;38.87;21.87;;;-0.20;99.90;;;;;;5085594;28;20839;-73
2024/01/17 08:50:13;;;;;;;33.97;17.73;;;-0.10;99.90;;;;;;5085090;28;20822;-73
2024/01/17 08:52:42;;;;;;;27.43;16.40;;;-0.10;99.90;;;;;;5084843;28;20275;-75
2024/01/17 08:55:10;;;;;;;26.40;16.30;;;0.00;99.90;;;;;;5084512;28;20207;-72
2024/01/17 08:57:39;;;;;;;38.17;22.70;;;-0.10;99.90;;;;;;5083748;28;20209;-71
2024/01/17 09:07:27;;;;;;;42.23;26.70;;;0.20;99.90;;;;;;5534566;23;20276;31
2024/01/17 09:10:01;;;;;;;28.50;18.57;;;-0.10;99.90;;;;;;4913394;29;20313;-71
2024/01/17 09:12:29;;;;;;;34.33;19.57;;;-0.10;99.90;;;;;;4935131;29;20210;-72
2024/01/17 09:14:57;;;;;;;51.63;30.40;;;0.10;99.90;;;;;;4928354;29;20232;-75
2024/01/17 09:17:26;;;;;;;43.17;28.40;;;0.20;99.90;;;;;;4928244;29;20209;-73
2024/01/17 09:19:54;;;;;;;35.53;21.30;;;0.30;99.90;;;;;;4927995;29;20288;-71
2024/01/17 09:22:23;;;;;;;46.00;27.77;;;0.40;99.90;;;;;;4926531;29;20750;-71
2024/01/17 09:24:53;;;;;;;40.13;20.57;;;0.30;99.90;;;;;;4926942;29;20270;-73
2024/01/17 09:27:21;;;;;;;28.50;20.37;;;0.40;99.90;;;;;;4930036;29;20678;-73
2024/01/17 09:29:49;;;;;;;27.83;16.17;;;0.30;99.90;;;;;;4947052;28;20198;-73
2024/01/17 09:32:18;;;;;;;25.03;15.27;;;0.20;99.90;;;;;;4947116;29;20238;-74
2024/01/17 09:34:48;;;;;;;27.07;17.70;;;0.30;99.90;;;;;;4942876;29;20233;-76
2024/01/17 09:37:17;;;;;;;30.40;17.03;;;0.20;99.90;;;;;;4933737;29;20238;-71
2024/01/17 09:39:45;;;;;;;29.33;16.20;;;0.50;99.90;;;;;;4918286;29;20202;-73
2024/01/17 09:42:16;;;;;;;26.03;16.03;;;0.40;99.90;;;;;;4907909;29;20195;-73
2024/01/17 09:44:45;;;;;;;22.07;14.23;;;0.70;99.90;;;;;;4914908;29;20320;-73
2024/01/17 09:47:16;;;;;;;23.67;14.13;;;0.90;99.90;;;;;;4914918;29;20251;-77
2024/01/17 09:49:45;;;;;;;23.80;14.43;;;1.00;99.90;;;;;;4915308;29;20258;-71
2024/01/17 09:52:17;;;;;;;24.50;14.70;;;1.10;99.90;;;;;;4914912;29;20214;-75
2024/01/17 09:54:47;;;;;;;27.97;15.37;;;1.10;99.90;;;;;;4914703;29;20205;-73
2024/01/17 09:57:22;;;;;;;20.83;14.37;;;1.30;99.90;;;;;;4914976;29;20219;-70
2024/01/17 09:59:52;;;;;;;20.73;13.03;;;0.90;99.90;;;;;;4913408;29;20270;-76
2024/01/17 10:02:22;;;;;;;24.27;15.50;;;0.70;99.90;;;;;;4914908;29;20297;-70
2024/01/17 10:04:50;;;;;;;18.93;13.57;;;0.60;99.90;;;;;;4914699;29;20286;-74
2024/01/17 10:07:19;;;;;;;21.80;15.70;;;0.60;99.90;;;;;;4914570;29;20210;-71
2024/01/17 10:09:47;;;;;;;19.00;13.43;;;0.50;99.90;;;;;;4914055;29;20238;-75
2024/01/17 10:12:19;;;;;;;21.97;13.80;;;0.60;99.90;;;;;;4914785;29;20194;-74
2024/01/17 10:14:47;;;;;;;22.00;14.17;;;0.60;99.90;;;;;;4914692;29;20233;-73
2024/01/17 10:17:16;;;;;;;23.57;14.33;;;0.70;99.90;;;;;;4913342;29;20225;-73
2024/01/17 10:19:44;;;;;;;23.47;13.87;;;0.70;99.90;;;;;;4914420;29;20210;-72
2024/01/17 10:22:13;;;;;;;20.80;12.60;;;0.60;99.90;;;;;;4913636;29;20234;-75
2024/01/17 10:24:42;;;;;;;22.93;13.90;;;0.50;99.90;;;;;;4914374;29;20221;-75
2024/01/17 10:27:10;;;;;;;25.20;14.13;;;0.60;99.90;;;;;;4914380;29;20298;-72
2024/01/17 10:29:41;;;;;;;20.83;13.70;;;0.80;99.90;;;;;;4914388;29;20223;-75
2024/01/17 10:32:10;;;;;;;17.43;12.90;;;0.80;99.90;;;;;;4914056;29;20230;-73
2024/01/17 10:34:38;;;;;;;19.93;13.10;;;1.00;99.90;;;;;;4914017;29;20620;-75
2024/01/17 10:37:11;;;;;;;24.43;13.97;;;1.00;99.90;;;;;;4914006;29;20712;-74
2024/01/17 10:39:40;;;;;;;25.00;14.03;;;0.80;99.90;;;;;;4913803;29;20206;-73
2024/01/17 10:42:19;;;;;;;24.37;14.50;;;0.80;99.90;;;;;;4913602;29;20321;-76
2024/01/17 10:44:49;;;;;;;18.10;11.47;;;0.80;99.90;;;;;;4913825;29;20228;-73
2024/01/17 10:47:17;;;;;;;20.17;12.57;;;0.90;99.90;;;;;;4912996;29;20617;-74
2024/01/17 10:49:46;;;;;;;25.87;13.13;;;1.10;99.90;;;;;;4914340;29;20217;-75
2024/01/17 10:52:17;;;;;;;16.47;11.07;;;1.20;99.90;;;;;;4913793;29;20202;-75
2024/01/17 10:54:50;;;;;;;18.50;12.17;;;1.20;99.90;;;;;;4913941;29;20301;-75
2024/01/17 10:57:20;;;;;;;18.97;13.00;;;1.00;99.90;;;;;;4913632;29;20298;-74
2024/01/17 10:59:51;;;;;;;20.27;13.40;;;1.00;99.90;;;;;;4913692;29;20237;-74
2024/01/17 11:02:20;;;;;;;23.13;13.27;;;1.30;99.90;;;;;;4913539;29;20294;-74
2024/01/17 11:04:55;;;;;;;22.07;13.43;;;1.20;99.90;;;;;;4913679;29;20217;-75
2024/01/17 11:07:24;;;;;;;22.97;14.20;;;1.30;99.90;;;;;;4913414;29;20198;-74
2024/01/17 11:09:53;;;;;;;21.33;13.17;;;1.00;99.90;;;;;;4913133;29;20243;-73
2024/01/17 11:12:23;;;;;;;20.97;13.60;;;1.00;99.90;;;;;;4913517;29;20250;-75
2024/01/17 11:14:57;;;;;;;23.77;13.07;;;1.20;99.90;;;;;;4913738;29;20297;-76
2024/01/17 11:17:28;;;;;;;24.03;14.20;;;1.20;99.90;;;;;;4913786;29;20203;-74
2024/01/17 11:20:00;;;;;;;23.10;13.60;;;1.20;99.90;;;;;;4913751;29;20293;-74
2024/01/17 11:22:30;;;;;;;24.50;14.03;;;1.20;99.90;;;;;;4913432;29;20272;-73
2024/01/17 11:25:10;;;;;;;20.90;13.67;;;1.10;99.90;;;;;;4913319;29;20226;-74
2024/01/17 11:27:46;;;;;;;20.43;13.37;;;1.20;99.90;;;;;;4913442;29;20211;-74
2024/01/17 11:30:27;;;;;;;21.23;14.77;;;1.30;99.90;;;;;;4913460;29;20198;-72
2024/01/17 11:33:04;;;;;;;24.07;14.70;;;1.40;99.90;;;;;;4913066;29;20207;-73
2024/01/17 11:35:46;;;;;;;20.93;15.03;;;1.50;99.90;;;;;;4913322;29;20286;-71
2024/01/17 11:38:28;;;;;;;21.03;14.30;;;1.40;99.90;;;;;;4913070;29;20221;-74
2024/01/17 11:40:58;;;;;;;25.83;13.67;;;1.50;99.90;;;;;;4913409;29;20214;-70
2024/01/17 11:43:29;;;;;;;20.97;13.70;;;1.60;99.90;;;;;;4913303;29;20696;-70
2024/01/17 11:46:00;;;;;;;22.77;14.73;;;1.60;99.90;;;;;;4913186;29;20222;-71
2024/01/17 11:48:30;;;;;;;22.83;15.40;;;1.60;99.90;;;;;;4913104;29;20309;-76
2024/01/17 11:51:04;;;;;;;27.57;15.20;;;1.70;99.90;;;;;;4912919;29;20206;-75
2024/01/17 11:53:35;;;;;;;19.87;13.80;;;1.60;99.90;;;;;;4912893;29;20207;-71
2024/01/17 11:56:05;;;;;;;24.83;15.40;;;1.60;99.90;;;;;;4895591;29;20306;-70
2024/01/17 11:58:41;;;;;;;24.27;14.77;;;1.70;99.90;;;;;;4912615;29;20199;-75
2024/01/17 12:01:13;;;;;;;23.07;14.67;;;1.70;99.90;;;;;;4913101;29;20211;-73
2024/01/17 12:03:42;;;;;;;20.70;12.70;;;1.50;99.90;;;;;;4912961;29;20195;-72
2024/01/17 12:06:11;;;;;;;23.53;14.47;;;1.50;99.90;;;;;;4912819;29;20252;-70
2024/01/17 12:08:40;;;;;;;24.63;15.53;;;1.30;99.90;;;;;;4911982;29;20242;-70
2024/01/17 12:11:09;;;;;;;23.20;13.30;;;1.40;99.90;;;;;;4912633;29;20211;-74
2024/01/17 12:13:38;;;;;;;22.07;12.90;;;1.20;99.90;;;;;;4912578;29;20744;-73
2024/01/17 12:16:07;;;;;;;19.97;13.27;;;1.40;99.90;;;;;;4912674;29;20241;-75
2024/01/17 12:18:37;;;;;;;29.27;14.63;;;1.20;99.90;;;;;;4912647;29;21019;-72
2024/01/17 12:21:06;;;;;;;20.00;11.60;;;1.30;99.90;;;;;;4912696;29;20248;-72
2024/01/17 12:23:36;;;;;;;21.70;13.40;;;1.30;99.90;;;;;;4912663;29;20756;-73
2024/01/17 12:26:05;;;;;;;19.27;13.20;;;1.50;99.90;;;;;;4912759;29;20222;-79
2024/01/17 12:28:33;;;;;;;24.23;15.17;;;1.50;99.90;;;;;;4912713;29;20200;-75
2024/01/17 12:31:03;;;;;;;23.60;14.67;;;1.60;99.90;;;;;;4912593;29;20208;-75
2024/01/17 12:33:33;;;;;;;22.77;13.40;;;1.30;99.90;;;;;;4912612;29;20582;-73
2024/01/17 12:36:05;;;;;;;19.60;12.27;;;1.50;99.90;;;;;;4912488;29;20205;-74
2024/01/17 12:38:35;;;;;;;22.20;13.37;;;1.40;99.20;;;;;;4911886;29;20199;-71
2024/01/17 12:41:05;;;;;;;21.57;13.13;;;1.50;99.20;;;;;;4895255;29;20670;-75
2024/01/17 12:43:35;;;;;;;19.33;12.17;;;1.40;98.20;;;;;;4912508;29;20566;-74
2024/01/17 12:46:04;;;;;;;17.73;13.23;;;1.40;97.80;;;;;;4912378;29;20220;-72
2024/01/17 12:48:33;;;;;;;20.40;14.20;;;1.30;98.10;;;;;;4912449;29;20211;-71
2024/01/17 12:51:06;;;;;;;20.90;12.17;;;1.50;98.90;;;;;;4912387;29;20202;-75
2024/01/17 12:53:39;;;;;;;18.40;12.73;;;1.60;97.00;;;;;;4912308;29;20206;-71
2024/01/17 12:56:09;;;;;;;23.77;13.33;;;1.80;96.00;;;;;;4912654;29;20211;-76
2024/01/17 12:58:37;;;;;;;18.37;11.30;;;1.80;94.80;;;;;;4912460;29;20738;-78
2024/01/17 13:01:05;;;;;;;18.03;11.57;;;1.80;91.90;;;;;;4912472;29;20206;-71
2024/01/17 13:03:34;;;;;;;17.93;11.63;;;1.70;94.90;;;;;;4909942;29;20212;-77
2024/01/17 13:06:06;;;;;;;20.00;11.83;;;1.60;93.90;;;;;;4912505;29;20236;-72
2024/01/17 13:08:35;;;;;;;17.83;12.47;;;1.70;93.30;;;;;;4912255;29;20237;-75
2024/01/17 13:11:14;;;;;;;16.43;11.03;;;1.60;93.70;;;;;;4914912;29;20199;-73
2024/01/17 13:13:42;;;;;;;19.93;12.73;;;1.60;94.40;;;;;;4916156;29;20198;-73
2024/01/17 13:16:13;;;;;;;15.93;11.30;;;1.50;92.70;;;;;;4916063;29;20579;-76
2024/01/17 13:18:42;;;;;;;16.73;10.40;;;1.30;93.90;;;;;;4916143;29;20880;-74
2024/01/17 13:21:14;;;;;;;18.43;10.33;;;1.40;93.40;;;;;;4916120;29;20690;-74
2024/01/17 13:23:42;;;;;;;16.27;9.93;;;1.60;93.00;;;;;;4915325;29;20211;-73
2024/01/17 13:26:11;;;;;;;18.50;12.73;;;1.50;91.90;;;;;;4915379;29;20227;-71
2024/01/17 13:28:40;;;;;;;17.37;11.97;;;1.50;93.30;;;;;;4915493;29;20211;-74
2024/01/17 13:31:08;;;;;;;12.33;9.10;;;1.50;93.90;;;;;;4915402;29;20194;-72
2024/01/17 13:33:37;;;;;;;15.10;9.97;;;1.40;91.60;;;;;;4915078;29;20207;-73
2024/01/17 13:36:06;;;;;;;16.07;10.23;;;1.40;91.90;;;;;;4914092;29;20563;-76
2024/01/17 13:38:36;;;;;;;19.87;12.17;;;1.50;91.80;;;;;;4914759;29;20213;-74
2024/01/17 13:41:04;;;;;;;19.50;12.90;;;1.50;92.70;;;;;;4915020;29;20274;-75
2024/01/17 13:43:33;;;;;;;15.87;9.97;;;1.60;91.50;;;;;;4914849;29;20666;-74
2024/01/17 13:46:01;;;;;;;16.13;10.90;;;1.40;91.10;;;;;;4915077;29;20226;-71
2024/01/17 13:48:29;;;;;;;19.37;10.73;;;1.60;91.50;;;;;;4915349;29;20208;-74
2024/01/17 13:50:58;;;;;;;18.13;11.70;;;1.60;90.10;;;;;;4915172;29;20199;-71
2024/01/17 13:53:32;;;;;;;26.50;16.20;;;1.40;90.30;;;;;;4914792;29;20202;-72
2024/01/17 13:56:05;;;;;;;18.80;11.80;;;1.30;91.00;;;;;;4913562;29;20217;-71
2024/01/17 13:58:33;;;;;;;21.30;14.10;;;1.40;90.70;;;;;;4915420;29;20230;-71
2024/01/17 14:01:05;;;;;;;20.07;10.90;;;1.50;90.40;;;;;;4915262;29;20346;-74
2024/01/17 14:03:35;;;;;;;16.97;10.23;;;1.40;89.00;;;;;;4915054;29;20199;-74
2024/01/17 14:06:03;;;;;;;19.87;10.20;;;1.30;89.10;;;;;;4915234;29;20230;-74
2024/01/17 14:08:34;;;;;;;16.30;10.23;;;1.30;89.50;;;;;;4914772;29;20228;-74
2024/01/17 14:11:04;;;;;;;12.57;9.83;;;1.20;87.50;;;;;;4907742;29;20239;-76
2024/01/17 14:13:32;;;;;;;19.53;9.90;;;1.10;89.30;;;;;;4914826;29;20202;-72
2024/01/17 14:16:01;;;;;;;19.13;11.30;;;1.10;88.00;;;;;;4915121;29;20228;-73
2024/01/17 14:18:29;;;;;;;15.23;10.17;;;1.20;88.00;;;;;;4915165;29;20238;-74
2024/01/17 14:20:57;;;;;;;16.10;10.00;;;1.40;89.00;;;;;;4915304;29;20242;-74
2024/01/17 14:23:28;;;;;;;15.87;10.73;;;1.50;85.30;;;;;;4915021;29;20213;-74
2024/01/17 14:25:57;;;;;;;21.60;13.20;;;1.20;85.30;;;;;;4915691;29;20207;-77
2024/01/17 14:28:27;;;;;;;17.37;10.93;;;1.20;87.50;;;;;;4915889;29;20202;-75
2024/01/17 14:30:55;;;;;;;20.03;11.60;;;1.20;86.00;;;;;;4915724;29;20215;-75
2024/01/17 14:33:24;;;;;;;20.50;11.07;;;1.10;88.60;;;;;;4915847;29;20196;-73
2024/01/17 14:35:54;;;;;;;19.70;12.57;;;1.20;89.00;;;;;;4918876;29;20226;-70
2024/01/17 14:38:23;;;;;;;18.07;12.47;;;1.30;87.60;;;;;;4922658;29;20271;-69
2024/01/17 14:40:51;;;;;;;16.27;10.47;;;1.50;85.50;;;;;;4922103;29;20704;-69
2024/01/17 14:43:19;;;;;;;20.60;11.50;;;1.50;82.90;;;;;;4920830;29;20235;-72
2024/01/17 14:45:49;;;;;;;19.07;11.53;;;1.30;84.60;;;;;;4921723;29;20726;-73
2024/01/17 14:48:18;;;;;;;16.27;10.37;;;1.20;85.00;;;;;;4922592;29;20234;-75
2024/01/17 14:50:46;;;;;;;16.17;11.97;;;1.10;84.90;;;;;;4916815;29;20629;-74
2024/01/17 14:53:15;;;;;;;16.67;10.87;;;1.10;85.80;;;;;;4914530;29;20210;-72
2024/01/17 14:55:44;;;;;;;25.00;13.93;;;1.00;86.30;;;;;;4914673;29;20689;-75
2024/01/17 14:58:12;;;;;;;23.37;14.17;;;1.10;87.20;;;;;;4915074;29;20217;-74
2024/01/17 15:00:41;;;;;;;20.40;13.13;;;1.20;86.30;;;;;;4914780;29;20613;-75
2024/01/17 15:03:12;;;;;;;18.93;11.57;;;1.20;84.80;;;;;;4914577;29;20212;-73
2024/01/17 15:05:40;;;;;;;21.50;12.30;;;1.10;85.20;;;;;;4914730;29;20195;-73
2024/01/17 15:08:08;;;;;;;21.57;13.10;;;1.00;85.90;;;;;;4917192;29;20234;-74
2024/01/17 15:10:37;;;;;;;20.23;13.17;;;1.00;86.80;;;;;;4918498;29;20273;-72
2024/01/17 15:13:05;;;;;;;21.00;13.63;;;1.00;87.10;;;;;;4919803;29;20202;-72
2024/01/17 15:15:36;;;;;;;20.90;12.17;;;1.10;87.20;;;;;;4918745;29;20218;-73
2024/01/17 15:18:08;;;;;;;21.17;12.50;;;1.00;86.90;;;;;;4915129;29;20642;-74
2024/01/17 15:20:38;;;;;;;31.80;18.53;;;1.10;86.50;;;;;;4914876;29;20222;-72
2024/01/17 15:23:06;;;;;;;32.40;20.20;;;1.20;87.50;;;;;;4914243;29;20208;-73
2024/01/17 15:25:34;;;;;;;25.70;14.87;;;1.20;87.90;;;;;;4912663;29;20282;-72
2024/01/17 15:28:03;;;;;;;20.30;12.50;;;1.00;85.70;;;;;;4914432;29;20252;-72
2024/01/17 15:30:31;;;;;;;20.70;11.60;;;1.00;88.40;;;;;;4914613;29;20263;-73
2024/01/17 15:33:01;;;;;;;17.57;12.00;;;1.20;85.80;;;;;;4913486;29;20270;-70
2024/01/17 15:35:30;;;;;;;23.87;14.43;;;1.10;84.70;;;;;;4913988;29;20217;-73
2024/01/17 15:38:00;;;;;;;17.80;12.23;;;1.00;87.50;;;;;;4913540;29;20207;-73
2024/01/17 15:40:28;;;;;;;37.67;18.37;;;1.00;85.50;;;;;;4913728;29;20573;-73
2024/01/17 15:42:57;;;;;;;23.67;12.30;;;0.90;88.80;;;;;;4913991;29;20198;-71
2024/01/17 15:45:25;;;;;;;30.67;16.77;;;1.00;87.00;;;;;;4913560;29;20211;-74
2024/01/17 15:47:53;;;;;;;24.33;13.90;;;1.10;87.50;;;;;;4913674;29;20250;-71
2024/01/17 15:50:22;;;;;;;21.00;12.17;;;1.10;85.70;;;;;;4913513;29;20673;-73
2024/01/17 15:52:50;;;;;;;19.63;12.47;;;1.10;85.20;;;;;;4913162;29;20210;-72
2024/01/17 15:55:20;;;;;;;74.43;40.80;;;1.00;86.60;;;;;;4912975;29;20199;-72
2024/01/17 15:57:49;;;;;;;18.87;11.83;;;1.00;86.00;;;;;;4913126;29;20271;-72
2024/01/17 16:00:17;;;;;;;21.87;11.77;;;0.80;87.60;;;;;;4913007;29;20261;-71
2024/01/17 16:02:45;;;;;;;20.63;13.07;;;0.90;89.00;;;;;;4913004;29;20194;-70
2024/01/17 16:05:14;;;;;;;20.97;13.97;;;0.80;89.40;;;;;;4911962;29;20242;-74
2024/01/17 16:07:43;;;;;;;18.90;11.83;;;0.90;87.70;;;;;;4817341;29;20245;-74
2024/01/17 16:10:11;;;;;;;20.90;12.17;;;0.90;87.60;;;;;;4817178;29;20245;-73
2024/01/17 16:12:41;;;;;;;15.93;10.30;;;0.80;86.30;;;;;;4817589;29;20748;-73
2024/01/17 16:15:13;;;;;;;20.57;12.00;;;0.70;86.30;;;;;;4817572;29;20215;-74
2024/01/17 16:17:41;;;;;;;18.53;10.80;;;0.60;90.10;;;;;;4817767;29;20216;-73
2024/01/17 16:20:11;;;;;;;18.57;11.33;;;0.70;87.90;;;;;;4816772;29;20214;-75
2024/01/17 16:22:39;;;;;;;20.60;12.00;;;0.60;86.40;;;;;;4817550;29;20249;-74
2024/01/17 16:25:08;;;;;;;19.70;12.73;;;0.60;86.60;;;;;;4831955;29;20224;-73
2024/01/17 16:27:37;;;;;;;24.37;13.10;;;0.60;85.40;;;;;;4912448;29;20223;-74
2024/01/17 16:30:08;;;;;;;56.67;32.27;;;0.80;87.50;;;;;;4912208;29;20269;-73
2024/01/17 16:32:37;;;;;;;22.03;14.60;;;0.90;85.80;;;;;;4912293;29;20217;-72
2024/01/17 16:35:07;;;;;;;22.90;13.73;;;0.80;83.50;;;;;;4911539;29;20705;-74
2024/01/17 16:37:36;;;;;;;23.07;13.73;;;0.70;83.10;;;;;;4912527;29;20199;-74
2024/01/17 16:40:05;;;;;;;24.07;13.93;;;0.70;82.70;;;;;;4911971;29;20198;-74
2024/01/17 16:42:34;;;;;;;29.37;15.30;;;0.90;83.50;;;;;;4912371;29;20206;-72
2024/01/17 16:45:03;;;;;;;32.23;17.77;;;1.00;82.60;;;;;;4912764;29;20195;-73
2024/01/17 16:47:33;;;;;;;23.50;14.93;;;1.10;82.00;;;;;;4915973;29;20198;-73
2024/01/17 16:50:02;;;;;;;23.80;15.37;;;0.90;80.70;;;;;;4915575;29;20194;-73
2024/01/17 16:52:30;;;;;;;35.03;20.47;;;0.80;82.40;;;;;;4916221;29;20650;-69
2024/01/17 16:54:58;;;;;;;28.17;18.33;;;0.90;82.70;;;;;;4916052;29;20245;-72
2024/01/17 16:57:27;;;;;;;22.77;15.40;;;1.10;82.10;;;;;;4916086;29;20199;-71
2024/01/17 16:59:55;;;;;;;26.43;15.70;;;1.00;81.00;;;;;;4916217;29;20206;-71
2024/01/17 17:02:24;;;;;;;27.60;15.77;;;1.00;82.70;;;;;;4915853;29;20199;-74
2024/01/17 17:04:53;;;;;;;22.87;14.37;;;1.00;81.80;;;;;;4915173;29;20214;-74
2024/01/17 17:07:22;;;;;;;28.80;17.97;;;0.90;83.90;;;;;;4915471;29;20578;-71
2024/01/17 17:09:50;;;;;;;27.47;15.87;;;0.60;85.30;;;;;;4915355;29;20316;-72
2024/01/17 17:12:19;;;;;;;31.03;16.37;;;0.50;87.50;;;;;;4915017;29;20974;-75
2024/01/17 17:14:47;;;;;;;23.50;15.30;;;0.60;87.40;;;;;;4915096;29;20196;-74
2024/01/17 17:17:16;;;;;;;26.93;15.47;;;0.60;87.40;;;;;;4914325;29;20237;-74
2024/01/17 17:19:44;;;;;;;28.40;17.00;;;0.50;88.40;;;;;;4914670;29;20209;-76
2024/01/17 17:22:15;;;;;;;31.10;20.83;;;0.50;88.40;;;;;;4914233;29;20208;-74
2024/01/17 17:24:46;;;;;;;28.60;18.60;;;0.70;87.70;;;;;;4914003;29;20215;-73
2024/01/17 17:27:14;;;;;;;31.50;18.03;;;0.80;86.40;;;;;;4910940;29;20203;-73
2024/01/17 17:29:42;;;;;;;29.67;18.00;;;0.70;86.80;;;;;;4914266;29;20783;-76
2024/01/17 17:32:11;;;;;;;34.03;19.03;;;0.80;86.50;;;;;;4893572;29;20577;-73
2024/01/17 17:34:39;;;;;;;31.63;18.17;;;0.70;86.80;;;;;;4900709;29;20196;-73
2024/01/17 17:37:08;;;;;;;31.17;18.23;;;0.60;87.40;;;;;;4914399;29;20211;-74
2024/01/17 17:39:39;;;;;;;30.27;18.17;;;0.50;87.50;;;;;;4914361;29;20232;-75
2024/01/17 17:42:07;;;;;;;30.37;18.47;;;0.50;89.40;;;;;;4912739;29;20216;-74
2024/01/17 17:44:35;;;;;;;30.90;18.03;;;0.60;89.10;;;;;;4915029;29;20218;-74
2024/01/17 17:47:04;;;;;;;37.73;19.60;;;0.60;89.10;;;;;;4914870;29;20202;-72